Stayer — PH2067 — position and weather

sailwx.info

Track history (hours):
 
Tides and Currents Weather Stations Pressure Air Temp Water Temp Dewpoint Dewpoint Depression Visibility Wind Speed Wind Dir Waves Ship Positions

Stayer

Last reported at 2017-Sep-02 03:33 UTC. Time now 2017-Sep-21 23:18 UTC.
Position N 43°23' W 001°48'.
Warning: this ship's position is 19 days out of date.

Length 12 m.

Type: Sailing vessel. MMSI: 244100812.

Date/timePositionNaut miles runAvg speedWind from/ knotsBaromVisibWave heightAir tempDewpointWater temp
2017-Sep-02 03:33N 43°23' W 001°48'0 0.0
2017-Sep-02 03:27N 43°23' W 001°48'0 0.0
2017-Sep-02 02:45N 43°23' W 001°48'0 0.0
2017-Sep-01 23:39N 43°23' W 001°48'0 0.0
2017-Sep-01 22:33N 43°23' W 001°48'0 0.0
2017-Sep-01 17:48N 43°23' W 001°48'0 0.0
2017-Sep-01 08:57N 43°23' W 001°48'0 0.0
2017-Sep-01 08:21N 43°23' W 001°48'0 0.0
2017-Sep-01 08:00N 43°23' W 001°48'0 0.0
2017-Sep-01 07:21N 43°23' W 001°48'0 0.0
2017-Sep-01 06:57N 43°23' W 001°48'0 0.0
2017-Sep-01 06:21N 43°23' W 001°48'0 0.0
2017-Sep-01 05:18N 43°23' W 001°48'0 0.0
2017-Sep-01 04:48N 43°23' W 001°48'0 0.0
2017-Sep-01 04:27N 43°23' W 001°48'0 0.0
2017-Sep-01 01:21N 43°23' W 001°48'0 0.0
2017-Sep-01 00:12N 43°23' W 001°48'0 0.0
2017-Aug-31 23:12N 43°23' W 001°48'0 0.0
2017-Aug-31 20:53N 43°23' W 001°48'0 0.0
2017-Aug-31 20:29N 43°23' W 001°48'0 0.0
2017-Aug-31 05:20N 43°23' W 001°48'0 0.0
2017-Aug-31 04:56N 43°23' W 001°48'0 0.0
2017-Aug-31 04:29N 43°23' W 001°48'0 0.0
2017-Aug-31 03:59N 43°23' W 001°48'0 0.0
2017-Aug-31 03:14N 43°23' W 001°48'0 0.0
2017-Aug-31 02:53N 43°23' W 001°48'0 0.0
2017-Aug-31 02:23N 43°23' W 001°48'0 0.0
2017-Aug-30 03:56N 43°23' W 001°48'0 0.0
2017-Aug-29 18:56N 43°23' W 001°48'0 0.0
2017-Aug-29 01:13N 43°23' W 001°48'0 0.0
2017-Aug-28 16:04N 43°23' W 001°48'0 0.0
2017-Aug-28 12:28N 43°23' W 001°48'0 0.0
2017-Aug-28 11:58N 43°23' W 001°48'0 0.0
2017-Aug-28 11:28N 43°23' W 001°48'0 0.0
2017-Aug-28 10:55N 43°23' W 001°48'0 0.0
2017-Aug-28 10:21N 43°23' W 001°48'0 0.0
2017-Aug-28 10:00N 43°23' W 001°48'0 0.0
2017-Aug-28 09:30N 43°23' W 001°48'0 0.0
2017-Aug-28 08:54N 43°23' W 001°48'0 0.0
2017-Aug-28 06:51N 43°23' W 001°48'0 0.0
2017-Aug-28 04:57N 43°23' W 001°48'0 0.0
2017-Aug-28 04:27N 43°23' W 001°48'0 0.0
2017-Aug-28 03:57N 43°23' W 001°48'0 0.0
2017-Aug-28 03:09N 43°23' W 001°48'0 0.0
2017-Aug-28 02:51N 43°23' W 001°48'0 0.0
2017-Aug-28 02:03N 43°23' W 001°48'0 0.0
2017-Aug-28 01:51N 43°23' W 001°48'0 0.0
2017-Aug-28 01:30N 43°23' W 001°48'0 0.0
2017-Aug-28 01:00N 43°23' W 001°48'0 0.0
2017-Aug-28 00:30N 43°23' W 001°48'0 0.0
2017-Aug-27 23:50N 43°23' W 001°48'0 0.0
2017-Aug-27 23:26N 43°23' W 001°48'0 0.0
2017-Aug-27 22:56N 43°23' W 001°48'0 0.0
2017-Aug-27 22:29N 43°23' W 001°48'0 0.0
2017-Aug-27 21:59N 43°23' W 001°48'0 0.0
2017-Aug-27 21:26N 43°23' W 001°48'0 0.0
2017-Aug-27 20:59N 43°23' W 001°48'0 0.0
2017-Aug-27 19:42N 43°23' W 001°48'0 0.0
2017-Aug-27 18:15N 43°23' W 001°48'0 0.0
2017-Aug-27 17:39N 43°23' W 001°48'0 0.0
2017-Aug-27 17:30N 43°23' W 001°48'0 0.0
2017-Aug-27 16:57N 43°23' W 001°48'0 0.0
2017-Aug-27 16:21N 43°23' W 001°48'0 0.0
2017-Aug-27 16:00N 43°23' W 001°48'0 0.0
2017-Aug-27 15:18N 43°23' W 001°48'0 0.0
2017-Aug-27 13:39N 43°23' W 001°48'0 0.0
2017-Aug-27 13:29N 43°23' W 001°48'0 0.0
2017-Aug-27 12:59N 43°23' W 001°48'0 0.0
2017-Aug-27 12:26N 43°23' W 001°48'0 0.0
2017-Aug-27 11:56N 43°23' W 001°48'0 0.1
2017-Aug-27 11:27N 43°23' W 001°48'13 5.2
2017-Aug-27 08:58N 43°35' W 001°43'3 5.1
2017-Aug-27 08:29N 43°38' W 001°42'3 5.7
2017-Aug-27 08:00N 43°40' W 001°40'4 5.1
2017-Aug-27 07:11N 43°44' W 001°38'1 3.5
2017-Aug-27 06:58N 43°45' W 001°38'2 4.2
2017-Aug-27 06:30N 43°47' W 001°37'2 4.0
2017-Aug-27 06:00N 43°48' W 001°36'2 4.1
2017-Aug-27 05:30N 43°50' W 001°35'2 4.8
2017-Aug-27 05:00N 43°53' W 001°35'4 5.0
2017-Aug-27 04:11N 43°57' W 001°34'1 5.0
2017-Aug-27 04:00N 43°58' W 001°33'3 5.0
2017-Aug-27 03:30N 44°00' W 001°33'2 4.3
2017-Aug-27 03:00N 44°02' W 001°32'2 3.9
2017-Aug-27 02:29N 44°04' W 001°31'2 4.2
2017-Aug-27 01:59N 44°06' W 001°29'2 3.3
2017-Aug-27 01:30N 44°07' W 001°28'2 3.5
2017-Aug-27 01:00N 44°09' W 001°28'2 4.0
2017-Aug-27 00:29N 44°11' W 001°27'2 4.8
2017-Aug-27 00:00N 44°13' W 001°26'3 5.0
2017-Aug-26 23:28N 44°16' W 001°26'2 4.8
2017-Aug-26 23:00N 44°18' W 001°26'8 4.9
2017-Aug-26 21:17N 44°26' W 001°22'2 5.3
2017-Aug-26 20:59N 44°28' W 001°21'2 5.2
2017-Aug-26 20:30N 44°30' W 001°21'3 5.4
2017-Aug-26 20:00N 44°33' W 001°19'3 5.4
2017-Aug-26 19:30N 44°34' W 001°16'3 6.0
2017-Aug-26 19:00N 44°37' W 001°14'2 3.2
2017-Aug-26 18:29N 44°38' W 001°14'0 0.1
2017-Aug-26 17:59N 44°38' W 001°14'0 0.2
2017-Aug-26 17:29N 44°38' W 001°14'1 1.5
2017-Aug-26 17:00N 44°39' W 001°14'2 3.8
2017-Aug-26 16:30N 44°40' W 001°12'2 3.8
2017-Aug-26 16:00N 44°40' W 001°09'0 0.9
2017-Aug-26 15:28N 44°40' W 001°09'0 0.0
2017-Aug-26 14:58N 44°40' W 001°09'0 0.0
2017-Aug-26 13:58N 44°40' W 001°09'0 0.0
2017-Aug-26 13:28N 44°40' W 001°09'0 0.0
2017-Aug-26 12:58N 44°40' W 001°09'0 0.0
2017-Aug-26 12:28N 44°40' W 001°09'0 0.0
2017-Aug-26 11:58N 44°40' W 001°09'0 0.0
2017-Aug-26 11:28N 44°40' W 001°09'0 0.0
2017-Aug-26 10:58N 44°40' W 001°09'0 0.0
2017-Aug-26 10:28N 44°40' W 001°09'0 0.0
2017-Aug-26 09:58N 44°40' W 001°09'0 0.0
2017-Aug-26 09:28N 44°40' W 001°09'0 0.0
2017-Aug-26 08:58N 44°40' W 001°09'0 0.0
2017-Aug-26 08:28N 44°40' W 001°09'0 0.0
2017-Aug-26 07:58N 44°40' W 001°09'0 0.0
2017-Aug-26 07:28N 44°40' W 001°09'0 0.0
2017-Aug-26 06:58N 44°40' W 001°09'0 0.0
2017-Aug-26 06:28N 44°40' W 001°09'0 0.0
2017-Aug-26 05:58N 44°40' W 001°09'0 0.0
2017-Aug-26 05:28N 44°40' W 001°09'0 0.0
2017-Aug-26 04:58N 44°40' W 001°09'0 0.0
2017-Aug-26 04:28N 44°40' W 001°09'0 0.0
2017-Aug-26 03:58N 44°40' W 001°09'0 0.0
2017-Aug-26 03:28N 44°40' W 001°09'0 0.0
2017-Aug-26 02:58N 44°40' W 001°09'0 0.0
2017-Aug-26 02:28N 44°40' W 001°09'0 0.0
2017-Aug-26 01:58N 44°40' W 001°09'0 0.0
2017-Aug-26 01:25N 44°40' W 001°09'0 0.0
2017-Aug-26 00:55N 44°40' W 001°09'0 0.0
2017-Aug-26 00:25N 44°40' W 001°09'0 0.0
2017-Aug-25 23:58N 44°40' W 001°09'0 0.0
2017-Aug-25 23:28N 44°40' W 001°09'0 0.0
2017-Aug-25 23:01N 44°40' W 001°09'0 0.0
2017-Aug-25 22:31N 44°40' W 001°09'0 0.0
2017-Aug-25 21:57N 44°40' W 001°09'0 0.0
2017-Aug-25 21:30N 44°40' W 001°09'0 0.0
2017-Aug-25 20:57N 44°40' W 001°09'0 0.0
2017-Aug-25 20:30N 44°40' W 001°09'0 0.0
2017-Aug-25 20:00N 44°40' W 001°09'0 0.0
2017-Aug-25 19:30N 44°40' W 001°09'0 0.0
2017-Aug-25 19:00N 44°40' W 001°09'0 0.0
2017-Aug-25 18:30N 44°40' W 001°09'0 0.0
2017-Aug-25 18:00N 44°40' W 001°09'0 0.0
2017-Aug-25 17:30N 44°40' W 001°09'0 0.0
2017-Aug-25 17:00N 44°40' W 001°09'0 0.0
2017-Aug-25 16:30N 44°40' W 001°09'0 0.0
2017-Aug-25 16:00N 44°40' W 001°09'0 0.0
2017-Aug-25 15:30N 44°40' W 001°09'0 0.0
2017-Aug-25 15:00N 44°40' W 001°09'0 0.0
2017-Aug-25 14:00N 44°40' W 001°09'0 0.0
2017-Aug-25 13:30N 44°40' W 001°09'0 0.0
2017-Aug-25 13:00N 44°40' W 001°09'0 0.0
2017-Aug-25 12:27N 44°40' W 001°09'0 0.0
2017-Aug-25 12:00N 44°40' W 001°09'0 0.0
2017-Aug-25 11:30N 44°40' W 001°09'0 0.0
2017-Aug-25 11:00N 44°40' W 001°09'0 0.0
2017-Aug-25 10:30N 44°40' W 001°09'0 0.0
2017-Aug-25 10:00N 44°40' W 001°09'0 0.0
2017-Aug-25 09:27N 44°40' W 001°09'0 0.0
2017-Aug-25 09:00N 44°40' W 001°09'0 0.0
2017-Aug-25 08:30N 44°40' W 001°09'0 0.0
2017-Aug-25 08:00N 44°40' W 001°09'0 0.0
2017-Aug-25 07:30N 44°40' W 001°09'0 0.0
2017-Aug-25 07:00N 44°40' W 001°09'0 0.0
2017-Aug-25 06:30N 44°40' W 001°09'0 0.0
2017-Aug-25 06:00N 44°40' W 001°09'0 0.0
2017-Aug-25 05:30N 44°40' W 001°09'0 0.0
2017-Aug-25 05:00N 44°40' W 001°09'0 0.0
2017-Aug-25 04:30N 44°40' W 001°09'0 0.0
2017-Aug-25 04:00N 44°40' W 001°09'0 0.0
2017-Aug-25 03:30N 44°40' W 001°09'0 0.0
2017-Aug-25 03:00N 44°40' W 001°09'0 0.0
2017-Aug-25 02:27N 44°40' W 001°09'0 0.0
2017-Aug-25 02:00N 44°40' W 001°09'0 0.0
2017-Aug-25 01:30N 44°40' W 001°09'0 0.0
2017-Aug-25 01:00N 44°40' W 001°09'0 0.0
2017-Aug-25 00:30N 44°40' W 001°09'0 0.0
2017-Aug-25 00:00N 44°40' W 001°09'0 0.0
2017-Aug-24 23:30N 44°40' W 001°09'0 0.0
2017-Aug-24 22:57N 44°40' W 001°09'0 0.0
2017-Aug-24 22:30N 44°40' W 001°09'0 0.0
2017-Aug-24 22:00N 44°40' W 001°09'0 0.0
2017-Aug-24 21:24N 44°40' W 001°09'0 0.0
2017-Aug-24 21:00N 44°40' W 001°09'0 0.0
2017-Aug-24 20:30N 44°40' W 001°09'0 0.0
2017-Aug-24 20:00N 44°40' W 001°09'0 0.0
2017-Aug-24 19:30N 44°40' W 001°09'0 0.0
2017-Aug-24 19:00N 44°40' W 001°09'0 0.0
2017-Aug-24 18:27N 44°40' W 001°09'0 0.0
2017-Aug-24 18:00N 44°40' W 001°09'0 0.0
2017-Aug-24 17:30N 44°40' W 001°09'0 0.0
2017-Aug-24 16:54N 44°40' W 001°09'0 0.7
2017-Aug-24 16:30N 44°40' W 001°09'3 6.8
2017-Aug-24 16:00N 44°39' W 001°14'4 7.7
2017-Aug-24 15:30N 44°35' W 001°15'3 5.6
2017-Aug-24 15:00N 44°34' W 001°19'3 6.6
2017-Aug-24 14:30N 44°38' W 001°20'3 6.4
2017-Aug-24 14:00N 44°41' W 001°22'3 6.2
2017-Aug-24 13:29N 44°44' W 001°23'3 6.2
2017-Aug-24 13:00N 44°46' W 001°25'  
Track history (hours):
 
Tides and Currents Weather Stations Pressure Air Temp Water Temp Dewpoint Dewpoint Depression Visibility Wind Speed Wind Dir Waves Ship Positions

Stayer

Last reported at 2017-Sep-02 03:33 UTC. Time now 2017-Sep-21 23:18 UTC.
Position N 43°23' W 001°48'.
Warning: this ship's position is 19 days out of date.

Length 12 m.

Type: Sailing vessel. MMSI: 244100812.

Date/timePositionNaut miles runAvg speedWind from/ knotsBaromVisibWave heightAir tempDewpointWater temp
2017-Sep-02 03:33N 43°23' W 001°48'0 0.0
2017-Sep-02 03:27N 43°23' W 001°48'0 0.0
2017-Sep-02 02:45N 43°23' W 001°48'0 0.0
2017-Sep-01 23:39N 43°23' W 001°48'0 0.0
2017-Sep-01 22:33N 43°23' W 001°48'0 0.0
2017-Sep-01 17:48N 43°23' W 001°48'0 0.0
2017-Sep-01 08:57N 43°23' W 001°48'0 0.0
2017-Sep-01 08:21N 43°23' W 001°48'0 0.0
2017-Sep-01 08:00N 43°23' W 001°48'0 0.0
2017-Sep-01 07:21N 43°23' W 001°48'0 0.0
2017-Sep-01 06:57N 43°23' W 001°48'0 0.0
2017-Sep-01 06:21N 43°23' W 001°48'0 0.0
2017-Sep-01 05:18N 43°23' W 001°48'0 0.0
2017-Sep-01 04:48N 43°23' W 001°48'0 0.0
2017-Sep-01 04:27N 43°23' W 001°48'0 0.0
2017-Sep-01 01:21N 43°23' W 001°48'0 0.0
2017-Sep-01 00:12N 43°23' W 001°48'0 0.0
2017-Aug-31 23:12N 43°23' W 001°48'0 0.0
2017-Aug-31 20:53N 43°23' W 001°48'0 0.0
2017-Aug-31 20:29N 43°23' W 001°48'0 0.0
2017-Aug-31 05:20N 43°23' W 001°48'0 0.0
2017-Aug-31 04:56N 43°23' W 001°48'0 0.0
2017-Aug-31 04:29N 43°23' W 001°48'0 0.0
2017-Aug-31 03:59N 43°23' W 001°48'0 0.0
2017-Aug-31 03:14N 43°23' W 001°48'0 0.0
2017-Aug-31 02:53N 43°23' W 001°48'0 0.0
2017-Aug-31 02:23N 43°23' W 001°48'0 0.0
2017-Aug-30 03:56N 43°23' W 001°48'0 0.0
2017-Aug-29 18:56N 43°23' W 001°48'0 0.0
2017-Aug-29 01:13N 43°23' W 001°48'0 0.0
2017-Aug-28 16:04N 43°23' W 001°48'0 0.0
2017-Aug-28 12:28N 43°23' W 001°48'0 0.0
2017-Aug-28 11:58N 43°23' W 001°48'0 0.0
2017-Aug-28 11:28N 43°23' W 001°48'0 0.0
2017-Aug-28 10:55N 43°23' W 001°48'0 0.0
2017-Aug-28 10:21N 43°23' W 001°48'0 0.0
2017-Aug-28 10:00N 43°23' W 001°48'0 0.0
2017-Aug-28 09:30N 43°23' W 001°48'0 0.0
2017-Aug-28 08:54N 43°23' W 001°48'0 0.0
2017-Aug-28 06:51N 43°23' W 001°48'0 0.0
2017-Aug-28 04:57N 43°23' W 001°48'0 0.0
2017-Aug-28 04:27N 43°23' W 001°48'0 0.0
2017-Aug-28 03:57N 43°23' W 001°48'0 0.0
2017-Aug-28 03:09N 43°23' W 001°48'0 0.0
2017-Aug-28 02:51N 43°23' W 001°48'0 0.0
2017-Aug-28 02:03N 43°23' W 001°48'0 0.0
2017-Aug-28 01:51N 43°23' W 001°48'0 0.0
2017-Aug-28 01:30N 43°23' W 001°48'0 0.0
2017-Aug-28 01:00N 43°23' W 001°48'0 0.0
2017-Aug-28 00:30N 43°23' W 001°48'0 0.0
2017-Aug-27 23:50N 43°23' W 001°48'0 0.0
2017-Aug-27 23:26N 43°23' W 001°48'0 0.0
2017-Aug-27 22:56N 43°23' W 001°48'0 0.0
2017-Aug-27 22:29N 43°23' W 001°48'0 0.0
2017-Aug-27 21:59N 43°23' W 001°48'0 0.0
2017-Aug-27 21:26N 43°23' W 001°48'0 0.0
2017-Aug-27 20:59N 43°23' W 001°48'0 0.0
2017-Aug-27 19:42N 43°23' W 001°48'0 0.0
2017-Aug-27 18:15N 43°23' W 001°48'0 0.0
2017-Aug-27 17:39N 43°23' W 001°48'0 0.0
2017-Aug-27 17:30N 43°23' W 001°48'0 0.0
2017-Aug-27 16:57N 43°23' W 001°48'0 0.0
2017-Aug-27 16:21N 43°23' W 001°48'0 0.0
2017-Aug-27 16:00N 43°23' W 001°48'0 0.0
2017-Aug-27 15:18N 43°23' W 001°48'0 0.0
2017-Aug-27 13:39N 43°23' W 001°48'0 0.0
2017-Aug-27 13:29N 43°23' W 001°48'0 0.0
2017-Aug-27 12:59N 43°23' W 001°48'0 0.0
2017-Aug-27 12:26N 43°23' W 001°48'0 0.0
2017-Aug-27 11:56N 43°23' W 001°48'0 0.1
2017-Aug-27 11:27N 43°23' W 001°48'13 5.2
2017-Aug-27 08:58N 43°35' W 001°43'3 5.1
2017-Aug-27 08:29N 43°38' W 001°42'3 5.7
2017-Aug-27 08:00N 43°40' W 001°40'4 5.1
2017-Aug-27 07:11N 43°44' W 001°38'1 3.5
2017-Aug-27 06:58N 43°45' W 001°38'2 4.2
2017-Aug-27 06:30N 43°47' W 001°37'2 4.0
2017-Aug-27 06:00N 43°48' W 001°36'2 4.1
2017-Aug-27 05:30N 43°50' W 001°35'2 4.8
2017-Aug-27 05:00N 43°53' W 001°35'4 5.0
2017-Aug-27 04:11N 43°57' W 001°34'1 5.0
2017-Aug-27 04:00N 43°58' W 001°33'3 5.0
2017-Aug-27 03:30N 44°00' W 001°33'2 4.3
2017-Aug-27 03:00N 44°02' W 001°32'2 3.9
2017-Aug-27 02:29N 44°04' W 001°31'2 4.2
2017-Aug-27 01:59N 44°06' W 001°29'2 3.3
2017-Aug-27 01:30N 44°07' W 001°28'2 3.5
2017-Aug-27 01:00N 44°09' W 001°28'2 4.0
2017-Aug-27 00:29N 44°11' W 001°27'2 4.8
2017-Aug-27 00:00N 44°13' W 001°26'3 5.0
2017-Aug-26 23:28N 44°16' W 001°26'2 4.8
2017-Aug-26 23:00N 44°18' W 001°26'8 4.9
2017-Aug-26 21:17N 44°26' W 001°22'2 5.3
2017-Aug-26 20:59N 44°28' W 001°21'2 5.2
2017-Aug-26 20:30N 44°30' W 001°21'3 5.4
2017-Aug-26 20:00N 44°33' W 001°19'3 5.4
2017-Aug-26 19:30N 44°34' W 001°16'3 6.0
2017-Aug-26 19:00N 44°37' W 001°14'2 3.2
2017-Aug-26 18:29N 44°38' W 001°14'0 0.1
2017-Aug-26 17:59N 44°38' W 001°14'0 0.2
2017-Aug-26 17:29N 44°38' W 001°14'1 1.5
2017-Aug-26 17:00N 44°39' W 001°14'2 3.8
2017-Aug-26 16:30N 44°40' W 001°12'2 3.8
2017-Aug-26 16:00N 44°40' W 001°09'0 0.9
2017-Aug-26 15:28N 44°40' W 001°09'0 0.0
2017-Aug-26 14:58N 44°40' W 001°09'0 0.0
2017-Aug-26 13:58N 44°40' W 001°09'0 0.0
2017-Aug-26 13:28N 44°40' W 001°09'0 0.0
2017-Aug-26 12:58N 44°40' W 001°09'0 0.0
2017-Aug-26 12:28N 44°40' W 001°09'0 0.0
2017-Aug-26 11:58N 44°40' W 001°09'0 0.0
2017-Aug-26 11:28N 44°40' W 001°09'0 0.0
2017-Aug-26 10:58N 44°40' W 001°09'0 0.0
2017-Aug-26 10:28N 44°40' W 001°09'0 0.0
2017-Aug-26 09:58N 44°40' W 001°09'0 0.0
2017-Aug-26 09:28N 44°40' W 001°09'0 0.0
2017-Aug-26 08:58N 44°40' W 001°09'0 0.0
2017-Aug-26 08:28N 44°40' W 001°09'0 0.0
2017-Aug-26 07:58N 44°40' W 001°09'0 0.0
2017-Aug-26 07:28N 44°40' W 001°09'0 0.0
2017-Aug-26 06:58N 44°40' W 001°09'0 0.0
2017-Aug-26 06:28N 44°40' W 001°09'0 0.0
2017-Aug-26 05:58N 44°40' W 001°09'0 0.0
2017-Aug-26 05:28N 44°40' W 001°09'0 0.0
2017-Aug-26 04:58N 44°40' W 001°09'0 0.0
2017-Aug-26 04:28N 44°40' W 001°09'0 0.0
2017-Aug-26 03:58N 44°40' W 001°09'0 0.0
2017-Aug-26 03:28N 44°40' W 001°09'0 0.0
2017-Aug-26 02:58N 44°40' W 001°09'0 0.0
2017-Aug-26 02:28N 44°40' W 001°09'0 0.0
2017-Aug-26 01:58N 44°40' W 001°09'0 0.0
2017-Aug-26 01:25N 44°40' W 001°09'0 0.0
2017-Aug-26 00:55N 44°40' W 001°09'0 0.0
2017-Aug-26 00:25N 44°40' W 001°09'0 0.0
2017-Aug-25 23:58N 44°40' W 001°09'0 0.0
2017-Aug-25 23:28N 44°40' W 001°09'0 0.0
2017-Aug-25 23:01N 44°40' W 001°09'0 0.0
2017-Aug-25 22:31N 44°40' W 001°09'0 0.0
2017-Aug-25 21:57N 44°40' W 001°09'0 0.0
2017-Aug-25 21:30N 44°40' W 001°09'0 0.0
2017-Aug-25 20:57N 44°40' W 001°09'0 0.0
2017-Aug-25 20:30N 44°40' W 001°09'0 0.0
2017-Aug-25 20:00N 44°40' W 001°09'0 0.0
2017-Aug-25 19:30N 44°40' W 001°09'0 0.0
2017-Aug-25 19:00N 44°40' W 001°09'0 0.0
2017-Aug-25 18:30N 44°40' W 001°09'0 0.0
2017-Aug-25 18:00N 44°40' W 001°09'0 0.0
2017-Aug-25 17:30N 44°40' W 001°09'0 0.0
2017-Aug-25 17:00N 44°40' W 001°09'0 0.0
2017-Aug-25 16:30N 44°40' W 001°09'0 0.0
2017-Aug-25 16:00N 44°40' W 001°09'0 0.0
2017-Aug-25 15:30N 44°40' W 001°09'0 0.0
2017-Aug-25 15:00N 44°40' W 001°09'0 0.0
2017-Aug-25 14:00N 44°40' W 001°09'0 0.0
2017-Aug-25 13:30N 44°40' W 001°09'0 0.0
2017-Aug-25 13:00N 44°40' W 001°09'0 0.0
2017-Aug-25 12:27N 44°40' W 001°09'0 0.0
2017-Aug-25 12:00N 44°40' W 001°09'0 0.0
2017-Aug-25 11:30N 44°40' W 001°09'0 0.0
2017-Aug-25 11:00N 44°40' W 001°09'0 0.0
2017-Aug-25 10:30N 44°40' W 001°09'0 0.0
2017-Aug-25 10:00N 44°40' W 001°09'0 0.0
2017-Aug-25 09:27N 44°40' W 001°09'0 0.0
2017-Aug-25 09:00N 44°40' W 001°09'0 0.0
2017-Aug-25 08:30N 44°40' W 001°09'0 0.0
2017-Aug-25 08:00N 44°40' W 001°09'0 0.0
2017-Aug-25 07:30N 44°40' W 001°09'0 0.0
2017-Aug-25 07:00N 44°40' W 001°09'0 0.0
2017-Aug-25 06:30N 44°40' W 001°09'0 0.0
2017-Aug-25 06:00N 44°40' W 001°09'0 0.0
2017-Aug-25 05:30N 44°40' W 001°09'0 0.0
2017-Aug-25 05:00N 44°40' W 001°09'0 0.0
2017-Aug-25 04:30N 44°40' W 001°09'0 0.0
2017-Aug-25 04:00N 44°40' W 001°09'0 0.0
2017-Aug-25 03:30N 44°40' W 001°09'0 0.0
2017-Aug-25 03:00N 44°40' W 001°09'0 0.0
2017-Aug-25 02:27N 44°40' W 001°09'0 0.0
2017-Aug-25 02:00N 44°40' W 001°09'0 0.0
2017-Aug-25 01:30N 44°40' W 001°09'0 0.0
2017-Aug-25 01:00N 44°40' W 001°09'0 0.0
2017-Aug-25 00:30N 44°40' W 001°09'0 0.0
2017-Aug-25 00:00N 44°40' W 001°09'0 0.0
2017-Aug-24 23:30N 44°40' W 001°09'0 0.0
2017-Aug-24 22:57N 44°40' W 001°09'0 0.0
2017-Aug-24 22:30N 44°40' W 001°09'0 0.0
2017-Aug-24 22:00N 44°40' W 001°09'0 0.0
2017-Aug-24 21:24N 44°40' W 001°09'0 0.0
2017-Aug-24 21:00N 44°40' W 001°09'0 0.0
2017-Aug-24 20:30N 44°40' W 001°09'0 0.0
2017-Aug-24 20:00N 44°40' W 001°09'0 0.0
2017-Aug-24 19:30N 44°40' W 001°09'0 0.0
2017-Aug-24 19:00N 44°40' W 001°09'0 0.0
2017-Aug-24 18:27N 44°40' W 001°09'0 0.0
2017-Aug-24 18:00N 44°40' W 001°09'0 0.0
2017-Aug-24 17:30N 44°40' W 001°09'0 0.0
2017-Aug-24 16:54N 44°40' W 001°09'0 0.7
2017-Aug-24 16:30N 44°40' W 001°09'3 6.8
2017-Aug-24 16:00N 44°39' W 001°14'4 7.7
2017-Aug-24 15:30N 44°35' W 001°15'3 5.6
2017-Aug-24 15:00N 44°34' W 001°19'3 6.6
2017-Aug-24 14:30N 44°38' W 001°20'3 6.4
2017-Aug-24 14:00N 44°41' W 001°22'3 6.2
2017-Aug-24 13:29N 44°44' W 001°23'3 6.2
2017-Aug-24 13:00N 44°46' W 001°25'  

Dump ship's entire track history